Flight Briefing for GRZ522

Departure Arrival
Adak Airport (PADK)
Click to view FAA NOTAMS
Eareckson Air Station (PASY)
Click to view FAA NOTAMS
Departure Time Arrival Time
N/A N/A
Aircraft Distance
B727-200F 344nm
Departure METAR Arrival METAR
PADK 252356Z AUTO 23023G30KT 10SM SCT023 BKN030 BKN075 04/01 A2944 RMK AO2 PK WND 24037/2343 RAB24E42 SLP968 P0000 60005 T00440006 10050 20006 51028 PASY 252259Z 25028G38KT 7SM FEW035 FEW050 01/M05 A2907 RMK PK WND 24040/2256 SLP846 RVRNO FZRANO $
Suggested Route
ADK J115 SYA


View recent IFR Routes data
Notes
USTRANSCOM CONTRACT FLIGHT

Charts and Procedures

Charts for PADK
No chart available
Charts for PASY
No chart available

Windy.com Weather Map